Skip Navigation Links Skip Navigation Links

Current Weather

Anadyr, Russia

For information only: do not use for flight planning or navigation.
Latest weather
Observation time Tuesday, November 30, 2021 10:00 AM +13
Local time Tuesday, November 30, 2021 10:35 AM +13
Flight conditions Marginal Visual Meteorological Conditions
Winds
Wind direction Northeast (50°)
Wind speed 2 mph
Visibility 5 mi.
Present weather light snow
Sky condition
Ceiling unlimited
Cloud layer few clouds 3,000 ft.
Cloud layer scattered clouds 4,000 ft.
Temperature -4°F
Dewpoint -9°F
Altimeter 30.03 in.Hg
Precipitation
QF 10:39 PM
Derived measurements
Relative humidity 77%
Wind chill -4°F
Density altitude -4392 ft.
Remarks
No significant changes expected in the next two hours.
METAR UHMA 292100Z 05001MPS 8000 -SN FEW030 SCT040 M20/M23 Q1017 R01/39//45 NOSIG RMK TDZ R01/05001MPS END R01/00000G01MPS QFE759/1012

Settings

Location code

InnerDrive.Weather 4.0.6770.0 Release CLR 4.0.30319.42000
Copyright ©2018 Inner Drive Technology. All rights reserved. Portions Copyright ©1986-2018 David Braverman.

Find weather

Site navigation


Skip Navigation Links

Place info

Page info

PayPal - The safer, easier way to pay online!

Return home.

Copyright ©2021 Inner Drive Technology. Purveyors of fine, hand-crafted computer software. Page printed 2021-11-29T21:35:29 UTC.